createdAt,value
2018-02-24T00:00:49.757Z,24.97
2018-02-24T00:03:17.855Z,21.80
2018-02-24T00:05:45.987Z,22.10
2018-02-24T00:08:14.113Z,22.50
2018-02-24T00:10:42.241Z,27.17
2018-02-24T00:13:10.381Z,26.57
2018-02-24T00:15:39.271Z,26.27
2018-02-24T00:18:07.504Z,19.73
2018-02-24T00:20:35.573Z,26.07
2018-02-24T00:23:05.621Z,26.50
2018-02-24T00:25:34.504Z,25.23
2018-02-24T00:28:02.605Z,22.30
2018-02-24T00:30:31.475Z,27.03
2018-02-24T00:33:00.473Z,28.57
2018-02-24T00:35:28.821Z,28.07
2018-02-24T00:37:56.932Z,30.60
2018-02-24T00:40:25.801Z,27.97
2018-02-24T00:42:53.917Z,31.23
2018-02-24T00:45:22.028Z,24.07
2018-02-24T00:47:50.139Z,28.97
2018-02-24T00:50:18.998Z,25.03
2018-02-24T00:52:47.129Z,28.67
2018-02-24T00:55:15.263Z,29.23
2018-02-24T00:57:43.382Z,24.87
2018-02-24T01:00:11.492Z,30.87
2018-02-24T01:02:39.627Z,33.03
2018-02-24T01:05:07.797Z,26.03
2018-02-24T01:07:35.884Z,31.33
2018-02-24T01:10:04.039Z,31.07
2018-02-24T01:12:32.164Z,33.07
2018-02-24T01:15:00.263Z,27.20
2018-02-24T01:17:29.148Z,26.20
2018-02-24T01:19:58.015Z,29.13
2018-02-24T01:22:26.147Z,22.73
2018-02-24T01:24:54.252Z,34.00
2018-02-24T01:27:22.355Z,29.60
2018-02-24T01:29:50.472Z,30.30
2018-02-24T01:32:18.595Z,26.80
2018-02-24T01:34:47.460Z,30.37
2018-02-24T01:37:15.579Z,30.17
2018-02-24T01:39:43.689Z,39.40
2018-02-24T01:42:11.792Z,37.20
2018-02-24T01:44:39.889Z,35.60
2018-02-24T01:47:07.997Z,37.30
2018-02-24T01:49:36.110Z,32.63
2018-02-24T01:52:04.211Z,33.90
2018-02-24T01:54:33.101Z,34.87
2018-02-24T01:57:02.309Z,35.53
2018-02-24T01:59:30.453Z,39.03
2018-02-24T02:01:58.576Z,36.87
2018-02-24T02:04:26.687Z,46.90
2018-02-24T02:06:54.786Z,38.57
2018-02-24T02:09:23.645Z,35.70
2018-02-24T02:11:51.773Z,33.80
2018-02-24T02:14:19.890Z,39.10
2018-02-24T02:16:48.009Z,37.43
2018-02-24T02:19:16.113Z,41.30
2018-02-24T02:21:44.220Z,43.80
2018-02-24T02:24:12.338Z,44.00
2018-02-24T02:26:40.487Z,38.60
2018-02-24T02:29:08.605Z,42.07
2018-02-24T02:31:36.702Z,38.73
2018-02-24T02:34:04.855Z,38.40
2018-02-24T02:36:32.916Z,36.53
2018-02-24T02:39:01.019Z,34.00
2018-02-24T02:41:29.133Z,39.47
2018-02-24T02:43:57.212Z,41.87
2018-02-24T02:46:25.308Z,37.63
2018-02-24T02:48:53.432Z,43.43
2018-02-24T02:51:22.303Z,32.80
2018-02-24T02:53:50.404Z,40.57
2018-02-24T02:56:18.517Z,34.40
2018-02-24T02:58:46.616Z,37.30
2018-02-24T03:01:14.744Z,37.23
2018-02-24T03:03:42.836Z,41.60
2018-02-24T03:06:10.945Z,38.57
2018-02-24T03:08:39.975Z,39.70
2018-02-24T03:11:08.079Z,43.20
2018-02-24T03:13:36.205Z,34.97
2018-02-24T03:16:04.312Z,40.53
2018-02-24T03:18:32.423Z,39.20
2018-02-24T03:21:00.572Z,35.03
2018-02-24T03:23:28.668Z,38.80
2018-02-24T03:25:56.800Z,37.43
2018-02-24T03:28:24.931Z,38.63
2018-02-24T03:30:53.805Z,36.00
2018-02-24T03:33:21.896Z,32.80
2018-02-24T03:35:50.789Z,36.87
2018-02-24T03:38:19.660Z,36.07
2018-02-24T03:40:47.771Z,40.63
2018-02-24T03:43:15.870Z,36.97
2018-02-24T03:46:00.723Z,34.03
2018-02-24T03:48:28.856Z,41.43
2018-02-24T03:50:56.973Z,37.80
2018-02-24T03:53:25.083Z,40.63
2018-02-24T03:55:53.183Z,39.60
2018-02-24T03:58:22.080Z,37.67
2018-02-24T04:00:50.188Z,37.60
2018-02-24T04:03:18.333Z,41.83
2018-02-24T04:05:46.433Z,32.37
2018-02-24T04:08:14.518Z,37.53
2018-02-24T04:10:42.619Z,36.90
2018-02-24T04:13:10.732Z,38.20
2018-02-24T04:15:38.892Z,35.63
2018-02-24T04:18:07.000Z,37.77
2018-02-24T04:20:35.151Z,32.77
2018-02-24T04:23:03.249Z,32.67
2018-02-24T04:25:31.367Z,43.73
2018-02-24T04:28:00.254Z,36.60
2018-02-24T04:30:29.147Z,36.43
2018-02-24T04:32:58.003Z,34.90
2018-02-24T04:35:26.106Z,32.97
2018-02-24T04:37:54.979Z,34.23
2018-02-24T04:40:23.072Z,35.77
2018-02-24T04:42:51.956Z,34.77
2018-02-24T04:45:20.069Z,38.10
2018-02-24T04:47:48.184Z,38.47
2018-02-24T04:50:16.279Z,33.47
2018-02-24T04:52:44.399Z,32.90
2018-02-24T04:55:12.480Z,42.40
2018-02-24T04:57:40.592Z,39.27
2018-02-24T05:00:08.694Z,31.40
2018-02-24T05:02:36.845Z,35.90
2018-02-24T05:05:05.740Z,33.80
2018-02-24T05:07:34.589Z,28.90
2018-02-24T05:10:02.744Z,32.17
2018-02-24T05:12:30.838Z,40.67
2018-02-24T05:14:58.954Z,32.03
2018-02-24T05:17:27.834Z,27.97
2018-02-24T05:19:56.679Z,30.07
2018-02-24T05:22:24.783Z,32.43
2018-02-24T05:24:52.914Z,35.23
2018-02-24T05:27:21.032Z,30.97
2018-02-24T05:29:49.164Z,30.80
2018-02-24T05:32:17.696Z,35.70
2018-02-24T05:34:45.800Z,34.20
2018-02-24T05:37:13.893Z,35.70
2018-02-24T05:39:41.995Z,31.33
2018-02-24T05:42:10.097Z,30.40
2018-02-24T05:44:38.211Z,34.33
2018-02-24T05:47:07.200Z,31.30
2018-02-24T05:49:35.638Z,29.10
2018-02-24T05:52:04.325Z,30.87
2018-02-24T05:54:32.597Z,32.83
2018-02-24T05:57:01.485Z,31.70
2018-02-24T05:59:29.587Z,31.30
2018-02-24T06:01:57.708Z,36.17
2018-02-24T06:04:25.816Z,31.17
2018-02-24T06:06:54.700Z,31.80
2018-02-24T06:09:23.564Z,32.93
2018-02-24T06:11:51.688Z,30.90
2018-02-24T06:14:19.801Z,29.53
2018-02-24T06:16:47.914Z,33.40
2018-02-24T06:19:16.782Z,30.37
2018-02-24T06:21:44.876Z,28.03
2018-02-24T06:24:12.999Z,36.13
2018-02-24T06:26:41.091Z,36.90
2018-02-24T06:29:09.196Z,30.03
2018-02-24T06:31:38.067Z,29.60
2018-02-24T06:34:06.233Z,36.20
2018-02-24T06:36:34.335Z,36.87
2018-02-24T06:39:03.212Z,34.40
2018-02-24T06:41:31.313Z,36.37
2018-02-24T06:43:59.440Z,43.53
2018-02-24T06:46:27.567Z,34.93
2018-02-24T06:48:55.677Z,39.73
2018-02-24T06:51:23.792Z,32.30
2018-02-24T06:53:52.675Z,32.97
2018-02-24T06:56:25.187Z,34.77
2018-02-24T06:58:53.297Z,30.17
2018-02-24T07:01:21.393Z,37.43
2018-02-24T07:03:50.283Z,36.33
2018-02-24T07:06:18.410Z,37.40
2018-02-24T07:08:46.498Z,31.60
2018-02-24T07:11:14.608Z,34.67
2018-02-24T07:13:42.728Z,37.50
2018-02-24T07:16:10.852Z,35.10
2018-02-24T07:18:39.729Z,38.77
2018-02-24T07:21:07.877Z,43.50
2018-02-24T07:23:36.048Z,35.23
2018-02-24T07:26:04.197Z,33.57
2018-02-24T07:28:33.033Z,35.90
2018-02-24T07:31:01.167Z,34.60
2018-02-24T07:33:29.277Z,35.60
2018-02-24T07:35:57.461Z,30.53
2018-02-24T07:38:25.577Z,34.70
2018-02-24T07:40:53.664Z,34.20
2018-02-24T07:43:21.750Z,39.80
2018-02-24T07:45:49.871Z,38.60
2018-02-24T07:48:17.973Z,31.10
2018-02-24T07:50:46.057Z,28.67
2018-02-24T07:53:14.178Z,33.53
2018-02-24T07:55:43.037Z,30.80
2018-02-24T07:58:11.155Z,31.03
2018-02-24T08:00:39.252Z,36.13
2018-02-24T08:03:07.393Z,32.90
2018-02-24T08:05:36.248Z,30.63
2018-02-24T08:08:04.366Z,35.53
2018-02-24T08:10:32.456Z,32.73
2018-02-24T08:13:00.576Z,29.90
2018-02-24T08:15:28.687Z,29.87
2018-02-24T08:17:56.786Z,29.90
2018-02-24T08:20:24.907Z,26.87
2018-02-24T08:22:53.007Z,29.90
2018-02-24T08:25:21.135Z,25.10
2018-02-24T08:27:49.220Z,21.80
2018-02-24T08:30:18.087Z,28.47
2018-02-24T08:32:46.212Z,24.70
2018-02-24T08:35:14.308Z,24.73
2018-02-24T08:37:43.204Z,19.00
2018-02-24T08:40:12.054Z,26.97
2018-02-24T08:42:40.937Z,34.23
2018-02-24T08:45:09.830Z,19.40
2018-02-24T08:47:38.690Z,25.70
2018-02-24T08:50:06.814Z,30.43
2018-02-24T08:52:34.928Z,23.40
2018-02-24T08:55:03.031Z,26.47
2018-02-24T08:57:31.152Z,23.43
2018-02-24T08:59:59.253Z,22.17
2018-02-24T09:02:27.392Z,21.73
2018-02-24T09:04:56.423Z,24.37
2018-02-24T09:07:24.511Z,24.63
2018-02-24T09:09:52.624Z,30.60
2018-02-24T09:12:20.735Z,33.63
2018-02-24T09:14:48.826Z,26.17
2018-02-24T09:17:16.936Z,19.00
2018-02-24T09:19:45.066Z,17.60
2018-02-24T09:22:13.221Z,20.53
2018-02-24T09:24:41.288Z,25.43
2018-02-24T09:27:09.393Z,24.00
2018-02-24T09:29:38.271Z,17.97
2018-02-24T09:32:06.400Z,15.20
2018-02-24T09:34:34.516Z,19.30
2018-02-24T09:37:02.623Z,19.27
2018-02-24T09:39:31.584Z,16.50
2018-02-24T09:41:59.724Z,25.30
2018-02-24T09:44:31.365Z,18.27
2018-02-24T09:46:59.449Z,18.03
2018-02-24T09:49:27.563Z,21.43
2018-02-24T09:51:56.403Z,20.57
2018-02-24T09:54:24.495Z,18.07
2018-02-24T09:56:52.592Z,17.20
2018-02-24T09:59:20.684Z,19.37
2018-02-24T10:01:48.792Z,20.40
2018-02-24T10:04:16.892Z,26.00
2018-02-24T10:06:44.979Z,19.40
2018-02-24T10:09:13.081Z,16.10
2018-02-24T10:11:41.970Z,27.43
2018-02-24T10:14:10.086Z,21.13
2018-02-24T10:16:38.679Z,22.10
2018-02-24T10:19:07.139Z,18.90
2018-02-24T10:21:35.256Z,26.80
2018-02-24T10:24:03.376Z,21.10
2018-02-24T10:26:31.488Z,16.47
2018-02-24T10:28:59.595Z,20.43
2018-02-24T10:31:27.705Z,19.20
2018-02-24T10:33:55.809Z,19.60
2018-02-24T10:36:24.678Z,20.20
2018-02-24T10:38:52.780Z,18.37
2018-02-24T10:41:20.925Z,18.33
2018-02-24T10:43:50.059Z,17.80
2018-02-24T10:46:18.952Z,18.53
2018-02-24T10:48:47.286Z,25.93
2018-02-24T10:51:15.418Z,17.90
2018-02-24T10:53:44.355Z,19.23
2018-02-24T10:56:12.866Z,22.60
2018-02-24T10:58:41.110Z,20.90
2018-02-24T11:01:09.401Z,15.20
2018-02-24T11:03:37.509Z,17.87
2018-02-24T11:06:05.741Z,14.83
2018-02-24T11:08:33.937Z,14.10
2018-02-24T11:11:02.033Z,19.17
2018-02-24T11:13:30.898Z,15.53
2018-02-24T11:15:59.006Z,13.43
2018-02-24T11:18:27.101Z,16.53
2018-02-24T11:20:55.376Z,19.20
2018-02-24T11:23:24.579Z,22.40
2018-02-24T11:25:53.184Z,16.43
2018-02-24T11:28:21.433Z,13.60
2018-02-24T11:30:49.604Z,16.67
2018-02-24T11:33:17.944Z,14.70
2018-02-24T11:35:46.289Z,14.77
2018-02-24T11:38:15.586Z,16.37
2018-02-24T11:40:44.416Z,12.07
2018-02-24T11:43:12.741Z,14.80
2018-02-24T11:45:40.825Z,20.60
2018-02-24T11:48:08.935Z,15.67
2018-02-24T11:50:37.032Z,10.90
2018-02-24T11:53:05.121Z,14.37
2018-02-24T11:55:33.248Z,14.57
2018-02-24T11:58:02.139Z,11.87
2018-02-24T12:00:30.262Z,12.90
2018-02-24T12:02:58.355Z,14.03
2018-02-24T12:05:26.454Z,18.00
2018-02-24T12:07:54.568Z,14.83
2018-02-24T12:10:22.670Z,17.10
2018-02-24T12:12:50.781Z,16.00
2018-02-24T12:15:18.878Z,22.43
2018-02-24T12:17:46.996Z,12.43
2018-02-24T12:20:15.857Z,13.90
2018-02-24T12:22:43.972Z,15.20
2018-02-24T12:25:12.063Z,16.63
2018-02-24T12:27:40.155Z,13.73
2018-02-24T12:30:08.257Z,14.70
2018-02-24T12:32:36.368Z,18.20
2018-02-24T12:35:04.461Z,16.40
2018-02-24T12:37:33.315Z,14.23
2018-02-24T12:40:01.421Z,13.07
2018-02-24T12:42:32.375Z,14.23
2018-02-24T12:45:00.477Z,14.43
2018-02-24T12:47:28.568Z,16.10
2018-02-24T12:49:56.721Z,18.73
2018-02-24T12:52:24.779Z,17.73
2018-02-24T12:54:52.877Z,13.90
2018-02-24T12:57:20.965Z,13.53
2018-02-24T12:59:49.064Z,15.30
2018-02-24T13:02:17.926Z,12.97
2018-02-24T13:04:46.032Z,15.43
2018-02-24T13:07:14.893Z,17.00
2018-02-24T13:09:43.004Z,14.00
2018-02-24T13:12:11.872Z,14.00
2018-02-24T13:14:39.959Z,16.20
2018-02-24T13:17:08.834Z,11.67
2018-02-24T13:19:36.921Z,15.60
2018-02-24T13:22:05.780Z,14.23
2018-02-24T13:24:33.877Z,17.90
2018-02-24T13:27:02.727Z,22.33
2018-02-24T13:29:30.840Z,16.20
2018-02-24T13:31:59.687Z,12.57
2018-02-24T13:34:27.781Z,9.17
2018-02-24T13:36:55.875Z,12.13
2018-02-24T13:39:24.769Z,14.60
2018-02-24T13:41:53.628Z,10.70
2018-02-24T13:44:21.748Z,14.70
2018-02-24T13:46:50.201Z,12.47
2018-02-24T13:49:18.322Z,11.57
2018-02-24T13:51:46.427Z,13.80
2018-02-24T13:54:16.761Z,10.60
2018-02-24T13:56:53.364Z,14.87
2018-02-24T13:59:22.380Z,11.23
2018-02-24T14:01:50.993Z,11.90
2018-02-24T14:04:19.484Z,11.27
2018-02-24T14:06:48.360Z,16.07
2018-02-24T14:09:16.687Z,13.00
2018-02-24T14:11:44.744Z,15.33
2018-02-24T14:14:12.828Z,11.63
2018-02-24T14:16:41.695Z,12.97
2018-02-24T14:19:09.802Z,10.27
2018-02-24T14:21:37.912Z,9.10
2018-02-24T14:24:06.018Z,13.87
2018-02-24T14:26:34.117Z,11.53
2018-02-24T14:29:02.203Z,13.60
2018-02-24T14:31:30.300Z,9.80
2018-02-24T14:33:58.413Z,12.50
2018-02-24T14:36:26.531Z,17.50
2018-02-24T14:38:54.641Z,9.80
2018-02-24T14:41:22.748Z,10.90
2018-02-24T14:43:51.607Z,9.53
2018-02-24T14:46:19.740Z,10.50
2018-02-24T14:48:47.841Z,10.47
2018-02-24T14:51:15.952Z,10.40
2018-02-24T14:53:44.046Z,10.07
2018-02-24T14:56:12.155Z,10.00
2018-02-24T14:58:40.259Z,10.40
2018-02-24T15:01:09.163Z,9.60
2018-02-24T15:03:38.052Z,11.90
2018-02-24T15:06:06.931Z,8.40
2018-02-24T15:08:36.050Z,9.80
2018-02-24T15:11:04.162Z,9.50
2018-02-24T15:13:32.259Z,11.10
2018-02-24T15:16:00.394Z,8.80
2018-02-24T15:18:28.477Z,9.57
2018-02-24T15:20:56.577Z,9.60
2018-02-24T15:23:24.665Z,7.70
2018-02-24T15:25:53.566Z,9.50
2018-02-24T15:28:22.446Z,10.80
2018-02-24T15:30:51.307Z,7.10
2018-02-24T15:33:19.401Z,11.50
2018-02-24T15:35:47.488Z,10.83
2018-02-24T15:38:15.608Z,10.67
2018-02-24T15:40:44.456Z,9.47
2018-02-24T15:43:13.355Z,11.53
2018-02-24T15:45:41.465Z,8.60
2018-02-24T15:48:09.575Z,10.73
2018-02-24T15:50:37.697Z,8.57
2018-02-24T15:53:05.794Z,10.40
2018-02-24T15:55:33.904Z,9.93
2018-02-24T15:58:02.756Z,11.40
2018-02-24T16:00:30.873Z,10.60
2018-02-24T16:02:59.745Z,10.83
2018-02-24T16:05:28.623Z,9.97
2018-02-24T16:07:56.757Z,9.20
2018-02-24T16:10:24.854Z,17.17
2018-02-24T16:12:52.976Z,11.20
2018-02-24T16:15:21.077Z,16.17
2018-02-24T16:17:49.176Z,16.80
2018-02-24T16:20:17.283Z,10.57
2018-02-24T16:22:46.161Z,9.20
2018-02-24T16:25:14.260Z,17.53
2018-02-24T16:27:42.365Z,15.53
2018-02-24T16:30:10.470Z,11.30
2018-02-24T16:32:38.560Z,11.87
2018-02-24T16:35:08.502Z,11.33
2018-02-24T16:37:36.628Z,13.60
2018-02-24T16:40:04.735Z,11.80
2018-02-24T16:42:32.853Z,15.47
2018-02-24T16:45:00.928Z,15.57
2018-02-24T16:47:29.057Z,13.37
2018-02-24T16:49:57.175Z,23.50
2018-02-24T16:52:25.281Z,24.17
2018-02-24T16:54:53.384Z,14.07
2018-02-24T16:57:21.492Z,19.60
2018-02-24T16:59:49.588Z,13.60
2018-02-24T17:02:17.748Z,15.53
2018-02-24T17:04:45.847Z,12.23
2018-02-24T17:07:14.740Z,13.77
2018-02-24T17:09:43.628Z,12.37
2018-02-24T17:12:12.581Z,15.87
2018-02-24T17:14:40.686Z,15.27
2018-02-24T17:17:08.779Z,12.93
2018-02-24T17:19:37.652Z,13.60
2018-02-24T17:22:05.759Z,13.63
2018-02-24T17:24:33.857Z,16.37
2018-02-24T17:27:01.986Z,17.43
2018-02-24T17:29:30.872Z,17.70
2018-02-24T17:31:59.731Z,14.47
2018-02-24T17:34:27.870Z,17.17
2018-02-24T17:36:55.979Z,16.43
2018-02-24T17:39:24.087Z,16.47
2018-02-24T17:41:52.971Z,15.20
2018-02-24T17:44:21.822Z,20.70
2018-02-24T17:46:49.936Z,12.60
2018-02-24T17:49:18.821Z,13.43
2018-02-24T17:51:46.969Z,11.90
2018-02-24T17:54:15.077Z,14.43
2018-02-24T17:56:43.931Z,14.47
2018-02-24T17:59:12.069Z,13.30
2018-02-24T18:01:40.180Z,13.93
2018-02-24T18:04:08.320Z,13.63
2018-02-24T18:06:36.455Z,14.93
2018-02-24T18:09:05.395Z,13.53
2018-02-24T18:11:33.524Z,10.30
2018-02-24T18:14:02.394Z,9.97
2018-02-24T18:16:30.502Z,13.23
2018-02-24T18:18:58.616Z,9.50
2018-02-24T18:21:26.744Z,11.90
2018-02-24T18:23:58.201Z,12.67
2018-02-24T18:26:27.273Z,12.57
2018-02-24T18:28:56.152Z,14.73
2018-02-24T18:31:24.288Z,12.40
2018-02-24T18:33:52.385Z,16.23
2018-02-24T18:36:20.499Z,14.07
2018-02-24T18:38:48.627Z,11.57
2018-02-24T18:41:16.754Z,11.17
2018-02-24T18:43:44.867Z,8.53
2018-02-24T18:46:12.989Z,10.40
2018-02-24T18:48:41.106Z,8.53
2018-02-24T18:51:09.264Z,10.50
2018-02-24T18:53:37.372Z,6.20
2018-02-24T18:56:05.504Z,8.60
2018-02-24T18:58:33.622Z,9.90
2018-02-24T19:01:01.743Z,9.77
2018-02-24T19:03:29.864Z,16.20
2018-02-24T19:05:57.974Z,7.53
2018-02-24T19:08:26.080Z,6.00
2018-02-24T19:10:54.209Z,8.10
2018-02-24T19:13:23.100Z,6.63
2018-02-24T19:15:54.020Z,11.57
2018-02-24T19:18:22.131Z,6.40
2018-02-24T19:20:50.261Z,5.33
2018-02-24T19:23:18.381Z,7.53
2018-02-24T19:25:46.487Z,4.60
2018-02-24T19:28:14.576Z,6.13
2018-02-24T19:30:42.750Z,6.00
2018-02-24T19:33:10.812Z,4.37
2018-02-24T19:35:38.917Z,9.20
2018-02-24T19:38:07.813Z,8.00
2018-02-24T19:40:36.689Z,4.60
2018-02-24T19:43:04.772Z,10.03
2018-02-24T19:45:33.649Z,4.67
2018-02-24T19:48:01.726Z,6.50
2018-02-24T19:50:29.847Z,5.73
2018-02-24T19:52:57.945Z,7.53
2018-02-24T19:55:26.036Z,4.37
2018-02-24T19:57:54.135Z,9.70
2018-02-24T20:00:22.253Z,8.50
2018-02-24T20:02:50.356Z,28.53
2018-02-24T20:05:18.491Z,18.30
2018-02-24T20:07:46.585Z,7.53
2018-02-24T20:10:14.682Z,7.23
2018-02-24T20:12:42.849Z,5.23
2018-02-24T20:15:10.964Z,4.07
2018-02-24T20:17:39.083Z,4.40
2018-02-24T20:20:07.159Z,7.47
2018-02-24T20:22:35.291Z,7.67
2018-02-24T20:25:03.416Z,5.70
2018-02-24T20:27:32.296Z,6.73
2018-02-24T20:30:00.376Z,6.60
2018-02-24T20:32:29.482Z,4.27
2018-02-24T20:34:57.583Z,6.97
2018-02-24T20:37:25.699Z,7.27
2018-02-24T20:39:53.796Z,8.00
2018-02-24T20:42:21.919Z,11.73
2018-02-24T20:44:50.032Z,6.67
2018-02-24T20:47:18.117Z,8.73
2018-02-24T20:49:47.003Z,8.73
2018-02-24T20:52:15.885Z,10.93
2018-02-24T20:54:44.044Z,5.60
2018-02-24T20:57:12.141Z,6.20
2018-02-24T20:59:40.229Z,6.03
2018-02-24T21:02:09.432Z,9.87
2018-02-24T21:04:37.537Z,7.07
2018-02-24T21:07:05.650Z,6.70
2018-02-24T21:09:33.778Z,5.50
2018-02-24T21:12:01.863Z,7.70
2018-02-24T21:14:29.964Z,6.90
2018-02-24T21:16:58.088Z,5.73
2018-02-24T21:19:26.208Z,8.50
2018-02-24T21:21:54.389Z,14.60
2018-02-24T21:24:22.453Z,6.83
2018-02-24T21:26:50.565Z,9.20
2018-02-24T21:29:18.667Z,5.53
2018-02-24T21:31:46.775Z,6.10
2018-02-24T21:34:14.859Z,5.30
2018-02-24T21:36:42.976Z,7.53
2018-02-24T21:39:11.126Z,8.60
2018-02-24T21:41:39.221Z,5.93
2018-02-24T21:44:07.327Z,7.77
2018-02-24T21:46:35.438Z,9.87
2018-02-24T21:49:03.557Z,8.53
2018-02-24T21:51:31.677Z,6.77
2018-02-24T21:53:59.769Z,6.63
2018-02-24T21:56:27.885Z,7.50
2018-02-24T21:58:55.998Z,4.97
2018-02-24T22:01:24.212Z,6.70
2018-02-24T22:03:52.311Z,4.93
2018-02-24T22:06:20.449Z,8.03
2018-02-24T22:08:48.546Z,8.77
2018-02-24T22:11:16.665Z,5.07
2018-02-24T22:13:44.769Z,8.37
2018-02-24T22:16:12.896Z,7.73
2018-02-24T22:18:41.776Z,9.20
2018-02-24T22:21:10.632Z,5.33
2018-02-24T22:23:38.754Z,22.40
2018-02-24T22:26:07.616Z,17.43
2018-02-24T22:28:35.725Z,6.17
2018-02-24T22:31:03.829Z,11.57
2018-02-24T22:33:31.952Z,5.30
2018-02-24T22:36:00.821Z,9.20
2018-02-24T22:38:28.927Z,7.17
2018-02-24T22:40:57.792Z,13.17
2018-02-24T22:43:25.933Z,10.10
2018-02-24T22:45:55.014Z,10.90
2018-02-24T22:48:28.568Z,4.73
2018-02-24T22:50:57.449Z,8.07
2018-02-24T22:53:25.539Z,9.47
2018-02-24T22:55:53.648Z,6.87
2018-02-24T22:58:21.764Z,6.93
2018-02-24T23:00:49.882Z,9.47
2018-02-24T23:03:17.968Z,8.27
2018-02-24T23:05:46.081Z,5.40
2018-02-24T23:08:14.271Z,4.00
2018-02-24T23:10:42.513Z,8.30
2018-02-24T23:13:10.620Z,7.60
2018-02-24T23:15:39.483Z,5.20
2018-02-24T23:18:07.591Z,6.70
2018-02-24T23:20:36.471Z,5.97
2018-02-24T23:23:04.573Z,6.30
2018-02-24T23:25:32.715Z,15.83
2018-02-24T23:28:00.809Z,20.63
2018-02-24T23:30:29.684Z,13.93
2018-02-24T23:32:58.542Z,21.63
2018-02-24T23:35:26.651Z,7.60
2018-02-24T23:37:55.558Z,4.67
2018-02-24T23:40:23.643Z,6.03
2018-02-24T23:42:51.749Z,5.50
2018-02-24T23:45:19.844Z,7.00
2018-02-24T23:47:47.939Z,8.07
2018-02-24T23:50:16.799Z,4.97
2018-02-24T23:52:44.924Z,4.43
2018-02-24T23:55:13.951Z,8.00
2018-02-24T23:57:42.060Z,19.00
